Time;durP1;ratioP1;P1;durP2;ratioP2;P2;SDS_P1;SDS_P2;PMS_P1;PMS_P2;Temp;Humidity;BMP_temperature;BMP_pressure;BME280_temperature;BME280_humidity;BME280_pressure;Samples;Min_cycle;Max_cycle;Signal;HPM_P1;HPM_P2
2021/01/04 00:01:44;;;;;;;10.27;5.68;;;;;;;6.59;67.76;100951.13;5081250;28;20537;-84
2021/01/04 00:04:28;;;;;;;11.77;6.15;;;;;;;6.59;68.22;100948.53;5077899;28;20024;-84
2021/01/04 00:07:12;;;;;;;11.43;6.22;;;;;;;6.68;68.47;100968.16;5053818;28;20047;-83
2021/01/04 00:09:59;;;;;;;13.85;5.53;;;;;;;6.47;68.85;100951.66;5071910;28;20378;-83
2021/01/04 00:12:54;;;;;;;12.38;7.00;;;;;;;6.62;68.84;100958.84;5071774;28;20066;-82
2021/01/04 00:15:32;;;;;;;12.13;6.32;;;;;;;6.72;68.14;100962.75;5071740;28;20107;-83
2021/01/04 00:18:48;;;;;;;9.63;5.65;;;;;;;6.86;67.71;100953.47;5071886;28;20020;-84
2021/01/04 00:21:46;;;;;;;10.20;6.32;;;;;;;6.66;68.15;100951.75;5037553;28;20036;-84
2021/01/04 00:24:52;;;;;;;13.45;7.97;;;;;;;6.64;68.82;100954.41;5071334;28;20563;-82
2021/01/04 00:27:29;;;;;;;10.80;5.50;;;;;;;6.69;68.50;100952.44;5071145;28;20131;-82
2021/01/04 00:29:58;;;;;;;8.65;5.40;;;;;;;6.67;68.96;100954.25;5079862;28;20032;-82
2021/01/04 00:32:33;;;;;;;10.30;5.72;;;;;;;6.89;67.71;100953.31;5073658;28;20389;-82
2021/01/04 00:35:01;;;;;;;11.15;6.18;;;;;;;6.95;67.54;100945.22;5074073;28;20378;-84
2021/01/04 00:37:54;;;;;;;10.10;5.85;;;;;;;6.78;67.84;100966.03;5091688;28;20026;-84
2021/01/04 00:40:49;;;;;;;11.27;6.07;;;;;;;6.74;68.58;100957.47;5091727;28;20024;-83
2021/01/04 00:43:34;;;;;;;11.07;5.65;;;;;;;6.61;69.76;100954.53;5069457;28;20086;-83
2021/01/04 00:46:00;;;;;;;9.25;6.03;;;;;;;6.81;69.02;100960.66;5071363;28;20027;-83
2021/01/04 00:48:37;;;;;;;10.15;5.90;;;;;;;6.95;68.45;100960.88;5071400;28;20391;-84
2021/01/04 00:51:26;;;;;;;10.70;8.07;;;;;;;6.94;67.97;100948.75;5071552;28;20050;-83
2021/01/04 00:53:52;;;;;;;8.90;5.75;;;;;;;7.03;67.52;100955.31;5071308;28;20036;-84
2021/01/04 00:56:34;;;;;;;8.60;5.60;;;;;;;7.02;67.89;100949.28;5071347;28;20150;-82
2021/01/04 00:59:37;;;;;;;12.82;6.97;;;;;;;6.94;67.90;100951.38;5072334;28;20487;-82
2021/01/04 01:02:48;;;;;;;9.63;5.53;;;;;;;7.01;67.89;100952.81;5071165;28;20032;-82
2021/01/04 01:05:25;;;;;;;8.57;5.45;;;;;;;6.98;68.41;100945.09;5071262;28;20390;-82
2021/01/04 01:08:04;;;;;;;10.85;6.47;;;;;;;7.01;67.43;100942.38;5071244;28;20074;-82
2021/01/04 01:10:37;;;;;;;8.32;5.63;;;;;;;6.84;68.74;100929.22;5073633;28;20089;-82
2021/01/04 01:13:28;;;;;;;11.85;5.70;;;;;;;7.01;67.85;100944.97;5076594;28;20040;-81
2021/01/04 01:16:22;;;;;;;14.18;5.72;;;;;;;7.02;67.56;100949.28;5058095;28;20028;-82
2021/01/04 01:19:05;;;;;;;12.73;5.70;;;;;;;6.91;68.23;100949.75;5074830;28;20028;-82
2021/01/04 01:21:32;;;;;;;11.45;5.55;;;;;;;7.01;67.83;100944.97;5074758;28;20108;-84
2021/01/04 01:23:57;;;;;;;10.52;5.50;;;;;;;7.08;67.57;100942.94;5074588;28;20037;-84
2021/01/04 01:26:44;;;;;;;11.00;5.68;;;;;;;7.13;67.18;100952.25;5074745;28;20072;-83
2021/01/04 01:29:40;;;;;;;10.13;4.93;;;;;;;6.99;67.55;100949.41;5074783;28;20059;-83
2021/01/04 01:32:18;;;;;;;7.43;4.82;;;;;;;7.01;67.88;100947.59;5074468;28;20111;-84
2021/01/04 01:35:02;;;;;;;10.25;5.50;;;;;;;7.08;67.32;100951.59;5074650;28;20032;-84
2021/01/04 01:38:25;;;;;;;9.40;5.70;;;;;;;6.82;68.35;100957.97;5074831;28;20031;-82
2021/01/04 01:41:19;;;;;;;9.38;5.72;;;;;;;6.93;68.12;100954.88;4983432;28;20097;-83
2021/01/04 01:44:00;;;;;;;12.15;5.10;;;;;;;6.96;67.91;100954.75;4963424;28;20093;-83
2021/01/04 01:46:28;;;;;;;11.45;5.13;;;;;;;7.07;67.66;100951.66;5055584;28;20044;-84
2021/01/04 01:49:13;;;;;;;8.23;4.80;;;;;;;6.97;68.20;100956.47;5074114;28;20021;-83
2021/01/04 01:51:57;;;;;;;14.75;6.60;;;;;;;6.72;68.41;100965.34;5074350;28;20029;-83
2021/01/04 01:54:41;;;;;;;13.35;5.75;;;;;;;6.79;68.65;100947.66;5074306;28;20029;-83
2021/01/04 01:57:41;;;;;;;11.45;5.68;;;;;;;7.08;67.81;100954.22;5074221;28;20024;-84
2021/01/04 02:00:23;;;;;;;6.43;4.57;;;;;;;7.07;67.96;100957.75;5074158;28;20029;-83
2021/01/04 02:03:20;;;;;;;7.15;5.28;;;;;;;7.11;68.16;100956.69;5074195;28;20060;-83
2021/01/04 02:06:01;;;;;;;7.75;4.43;;;;;;;7.15;67.44;100967.88;5075146;28;20379;-84
2021/01/04 02:08:30;;;;;;;6.35;4.10;;;;;;;6.89;67.80;100967.25;5074059;28;20036;-84
2021/01/04 02:11:01;;;;;;;8.93;5.00;;;;;;;6.85;68.59;100970.03;5073947;28;20565;-84
2021/01/04 02:13:35;;;;;;;7.18;3.75;;;;;;;6.94;68.10;100964.44;5074532;28;20033;-84
2021/01/04 02:16:11;;;;;;;10.93;4.18;;;;;;;6.97;67.70;100972.13;5073793;28;20031;-84
2021/01/04 02:18:47;;;;;;;9.52;4.22;;;;;;;7.02;67.43;100977.16;5073808;28;20438;-84
2021/01/04 02:21:49;;;;;;;8.43;4.30;;;;;;;6.76;68.41;100968.69;5077888;28;20051;-83
2021/01/04 02:24:16;;;;;;;11.15;3.88;;;;;;;6.65;68.57;100969.13;5093501;28;20036;-84
2021/01/04 02:26:46;;;;;;;8.32;3.40;;;;;;;6.82;68.07;100978.03;5093851;28;20051;-83
2021/01/04 02:29:19;;;;;;;5.15;3.30;;;;;;;6.66;68.43;100972.63;5093839;28;20043;-84
2021/01/04 02:31:49;;;;;;;6.75;3.47;;;;;;;6.58;67.62;100959.88;5093793;28;20043;-84
2021/01/04 02:34:17;;;;;;;7.47;3.03;;;;;;;6.58;68.40;100974.69;5093698;28;20024;-83
2021/01/04 02:36:50;;;;;;;6.13;3.17;;;;;;;6.75;68.61;100967.84;5083430;28;20487;-84
2021/01/04 02:39:39;;;;;;;8.10;3.00;;;;;;;6.58;68.23;100974.69;5073388;28;20544;-83
2021/01/04 02:42:30;;;;;;;5.50;3.20;;;;;;;6.69;68.26;100967.25;5073394;28;20386;-83
2021/01/04 02:44:57;;;;;;;8.02;3.63;;;;;;;6.72;68.32;100962.75;5072952;28;20032;-83
2021/01/04 02:47:42;;;;;;;5.45;3.20;;;;;;;6.66;67.94;100959.56;5073225;28;20016;-83
2021/01/04 02:50:27;;;;;;;6.88;3.22;;;;;;;6.59;67.37;100964.19;5055295;28;20035;-84
2021/01/04 02:53:10;;;;;;;6.18;2.50;;;;;;;6.60;68.06;100960.66;5091321;28;20032;-84
2021/01/04 02:55:57;;;;;;;8.00;2.90;;;;;;;6.40;68.25;100965.84;5093366;28;20050;-83
2021/01/04 02:58:25;;;;;;;9.77;2.75;;;;;;;6.41;68.54;100960.59;5093229;28;20427;-84
2021/01/04 03:00:56;;;;;;;9.15;3.33;;;;;;;6.13;69.37;100958.28;5074680;28;20024;-84
2021/01/04 03:03:25;;;;;;;7.43;2.88;;;;;;;6.10;69.38;100958.38;5072767;28;20024;-84
2021/01/04 03:05:51;;;;;;;7.97;2.97;;;;;;;6.18;68.62;100953.72;5072723;28;20028;-84
2021/01/04 03:08:16;;;;;;;12.07;3.40;;;;;;;6.19;68.34;100952.81;5083100;28;20024;-84
2021/01/04 03:10:41;;;;;;;9.65;3.47;;;;;;;5.97;69.03;100954.59;5060419;28;20040;-84
2021/01/04 03:13:23;;;;;;;9.68;2.90;;;;;;;6.11;68.68;100962.69;5073331;28;20029;-84
2021/01/04 03:16:07;;;;;;;4.57;2.60;;;;;;;6.11;68.90;100958.31;5073308;28;20020;-84
2021/01/04 03:18:56;;;;;;;7.35;2.50;;;;;;;5.99;69.21;100952.78;5072520;28;20055;-84
2021/01/04 03:21:26;;;;;;;6.75;2.80;;;;;;;5.96;68.94;100940.69;5072005;28;20047;-83
2021/01/04 03:23:53;;;;;;;7.32;2.67;;;;;;;5.90;68.39;100961.75;5072467;28;20444;-83
2021/01/04 03:26:22;;;;;;;7.53;2.70;;;;;;;5.87;69.19;100959.28;5074255;28;20374;-84
2021/01/04 03:28:47;;;;;;;6.82;2.70;;;;;;;5.79;69.49;100969.16;5072312;28;20021;-84
2021/01/04 03:31:13;;;;;;;7.47;2.65;;;;;;;5.70;69.16;100963.38;5072358;28;20035;-83
2021/01/04 03:33:39;;;;;;;7.43;2.92;;;;;;;5.72;69.31;100958.97;5071860;28;20113;-84
2021/01/04 03:36:05;;;;;;;7.05;4.40;;;;;;;5.68;69.53;100972.19;5072257;28;20024;-84
2021/01/04 03:38:32;;;;;;;13.68;3.35;;;;;;;5.56;68.36;100963.06;5072261;28;20025;-83
2021/01/04 03:40:58;;;;;;;8.00;2.78;;;;;;;5.45;69.21;100971.31;5072224;28;20020;-84
2021/01/04 03:43:24;;;;;;;10.77;3.15;;;;;;;5.52;69.41;100959.72;5071908;28;20062;-84
2021/01/04 03:45:50;;;;;;;7.32;2.53;;;;;;;5.61;68.66;100966.38;5072359;28;20039;-84
2021/01/04 03:48:15;;;;;;;7.90;2.88;;;;;;;5.61;68.20;100970.69;5073247;28;20020;-84
2021/01/04 03:50:40;;;;;;;8.40;2.90;;;;;;;5.50;68.85;100974.56;5072051;28;20489;-84
2021/01/04 03:53:06;;;;;;;7.22;2.60;;;;;;;5.47;68.62;100973.81;5072044;28;20021;-84
2021/01/04 03:55:31;;;;;;;10.57;3.22;;;;;;;5.43;69.75;100972.25;5072043;28;20029;-83
2021/01/04 03:57:57;;;;;;;9.00;3.00;;;;;;;5.32;68.79;100949.22;5071950;28;20056;-83
2021/01/04 04:00:22;;;;;;;9.05;2.50;;;;;;;5.37;69.50;100962.91;5072103;28;20020;-83
2021/01/04 04:02:49;;;;;;;7.40;3.15;;;;;;;5.31;68.62;100964.00;5081965;28;20591;-83
2021/01/04 04:05:16;;;;;;;6.88;2.83;;;;;;;5.24;68.76;100959.94;5088515;28;20033;-83
2021/01/04 04:07:42;;;;;;;6.45;2.90;;;;;;;5.30;68.91;100962.28;5071676;28;20450;-83
2021/01/04 04:10:09;;;;;;;9.88;3.22;;;;;;;5.27;69.12;100966.75;5071792;28;20056;-83
2021/01/04 04:12:35;;;;;;;7.63;2.92;;;;;;;5.12;70.02;100953.41;5071767;28;20035;-83
2021/01/04 04:15:02;;;;;;;7.57;2.90;;;;;;;5.27;69.20;100962.44;5072311;28;20024;-83
2021/01/04 04:17:27;;;;;;;7.10;3.10;;;;;;;5.21;69.57;100962.63;5071823;28;20027;-83
2021/01/04 04:19:52;;;;;;;10.95;2.97;;;;;;;5.26;69.01;100954.66;5073141;28;20024;-83
2021/01/04 04:22:18;;;;;;;8.20;3.10;;;;;;;5.20;69.05;100954.91;5091765;28;20501;-83
2021/01/04 04:24:45;;;;;;;14.55;3.65;;;;;;;5.04;69.25;100962.41;5091835;28;20080;-83
2021/01/04 04:27:12;;;;;;;9.10;3.50;;;;;;;5.00;68.99;100955.63;5073800;28;20024;-83
2021/01/04 04:29:39;;;;;;;8.30;3.47;;;;;;;5.09;68.53;100958.72;5090187;28;20032;-83
2021/01/04 04:32:06;;;;;;;8.73;4.10;;;;;;;5.01;69.76;100942.53;5091740;28;20529;-83
2021/01/04 04:34:32;;;;;;;12.25;3.80;;;;;;;5.18;68.55;100948.91;5091720;28;20028;-83
2021/01/04 04:36:58;;;;;;;9.18;3.47;;;;;;;5.19;69.23;100958.38;5091805;28;20094;-83
2021/01/04 04:39:23;;;;;;;10.00;3.40;;;;;;;5.00;69.60;100948.66;5091907;28;20020;-83
2021/01/04 04:41:50;;;;;;;11.88;6.00;;;;;;;4.97;68.97;100941.78;5091716;28;20502;-83
2021/01/04 04:44:24;;;;;;;9.30;3.70;;;;;;;4.96;69.04;100960.09;5091403;28;20113;-83
2021/01/04 04:47:19;;;;;;;10.60;3.95;;;;;;;4.92;68.81;100941.13;5079225;28;20056;-83
2021/01/04 04:50:15;;;;;;;6.18;3.90;;;;;;;5.21;68.79;100961.78;5095913;28;20085;-83
2021/01/04 04:52:59;;;;;;;7.03;3.92;;;;;;;5.03;68.77;100961.53;5095602;28;20058;-83
2021/01/04 04:55:43;;;;;;;11.23;3.95;;;;;;;5.09;68.95;100960.47;5095526;28;20065;-83
2021/01/04 04:58:22;;;;;;;6.20;3.38;;;;;;;5.02;68.56;100956.41;5095563;28;20054;-83
2021/01/04 05:00:50;;;;;;;12.75;4.90;;;;;;;5.16;68.79;100954.16;5091970;28;20021;-83
2021/01/04 05:03:27;;;;;;;8.27;3.92;;;;;;;5.19;69.25;100950.56;5095262;28;20028;-83
2021/01/04 05:06:05;;;;;;;14.50;4.05;;;;;;;5.12;69.58;100947.38;5095472;28;20031;-83
2021/01/04 05:08:42;;;;;;;10.80;4.32;;;;;;;5.19;69.10;100951.41;5077135;28;20059;-83
2021/01/04 05:11:10;;;;;;;9.80;4.70;;;;;;;4.89;69.78;100942.97;5095343;28;20416;-83
2021/01/04 05:13:43;;;;;;;17.35;4.32;;;;;;;5.23;68.89;100953.00;5095783;28;20032;-83
2021/01/04 05:16:42;;;;;;;7.68;4.63;;;;;;;4.95;69.34;100954.00;5093602;28;20036;-83
2021/01/04 05:19:16;;;;;;;10.05;4.00;;;;;;;4.92;69.39;100950.69;5095059;28;20024;-83
2021/01/04 05:22:20;;;;;;;8.98;3.95;;;;;;;5.00;69.18;100961.66;5095143;28;20099;-83
2021/01/04 05:24:54;;;;;;;9.50;4.55;;;;;;;4.97;69.46;100960.00;5094991;28;20051;-83
2021/01/04 05:27:50;;;;;;;13.65;4.10;;;;;;;5.18;69.05;100960.16;5076792;28;20120;-83
2021/01/04 05:30:43;;;;;;;10.30;4.43;;;;;;;5.04;69.51;100955.44;5075916;28;20076;-83
2021/01/04 05:33:21;;;;;;;13.55;4.90;;;;;;;5.19;68.04;100954.03;5094756;28;20466;-83
2021/01/04 05:35:48;;;;;;;11.50;4.68;;;;;;;5.28;68.11;100955.47;5094746;28;20030;-83
2021/01/04 05:38:37;;;;;;;15.25;4.50;;;;;;;5.16;68.44;100957.59;5095054;28;20023;-83
2021/01/04 05:41:42;;;;;;;13.90;5.00;;;;;;;5.17;68.88;100953.22;5094595;28;20024;-83
2021/01/04 05:44:26;;;;;;;9.43;4.65;;;;;;;5.43;67.81;100967.91;5094518;28;20028;-83
2021/01/04 05:47:04;;;;;;;10.60;4.65;;;;;;;5.48;67.27;100954.69;5074560;28;20036;-83
2021/01/04 05:49:43;;;;;;;12.88;4.50;;;;;;;5.53;67.28;100958.84;5074529;28;20077;-83
2021/01/04 05:52:08;;;;;;;12.57;4.85;;;;;;;5.29;67.63;100952.81;5074423;28;20023;-83
2021/01/04 05:54:36;;;;;;;9.77;5.65;;;;;;;5.37;68.08;100965.50;5074177;28;20103;-83
2021/01/04 05:57:11;;;;;;;7.03;4.80;;;;;;;5.39;67.52;100963.72;5073863;28;20024;-83
2021/01/04 05:59:48;;;;;;;8.00;4.57;;;;;;;5.35;67.76;100955.19;5077358;28;20483;-83
2021/01/04 06:02:26;;;;;;;9.32;4.15;;;;;;;5.07;69.54;100954.47;5086341;28;20028;-83
2021/01/04 06:04:52;;;;;;;15.05;4.40;;;;;;;5.24;68.43;100956.47;5074031;28;20025;-83
2021/01/04 06:07:18;;;;;;;10.23;4.60;;;;;;;5.05;68.60;100956.28;5074073;28;20467;-83
2021/01/04 06:09:56;;;;;;;14.38;4.70;;;;;;;5.05;69.13;100964.94;5074044;28;20028;-84
2021/01/04 06:12:34;;;;;;;10.07;5.03;;;;;;;4.99;68.58;100964.31;5074022;28;20035;-83
2021/01/04 06:15:00;;;;;;;5.80;3.85;;;;;;;4.97;68.24;100956.56;5056730;28;20032;-83
2021/01/04 06:17:37;;;;;;;5.95;4.43;;;;;;;5.26;68.50;100965.09;5091767;28;20382;-83
2021/01/04 06:20:18;;;;;;;9.45;4.25;;;;;;;5.11;67.78;100963.88;5094214;28;20032;-83
2021/01/04 06:22:43;;;;;;;6.78;4.38;;;;;;;5.19;67.67;100953.19;5075600;28;20436;-83
2021/01/04 06:25:09;;;;;;;7.70;4.28;;;;;;;5.09;68.18;100960.47;5094104;28;20016;-83
2021/01/04 06:27:39;;;;;;;10.70;4.40;;;;;;;5.18;67.67;100961.91;5093920;28;20020;-83
2021/01/04 06:30:20;;;;;;;11.02;4.30;;;;;;;5.26;67.82;100950.31;5090188;28;20036;-84
2021/01/04 06:32:48;;;;;;;13.57;5.47;;;;;;;5.19;67.68;100958.38;5093280;28;20039;-83
2021/01/04 06:35:16;;;;;;;10.15;4.78;;;;;;;5.17;67.53;100953.22;5093571;28;20466;-84
2021/01/04 06:37:42;;;;;;;13.98;6.18;;;;;;;5.12;67.40;100962.97;5093678;28;20103;-83
2021/01/04 06:40:29;;;;;;;8.52;3.97;;;;;;;5.07;68.13;100962.28;5093692;28;20028;-83
2021/01/04 06:42:55;;;;;;;9.15;4.65;;;;;;;4.92;68.45;100966.31;5093032;28;20111;-83
2021/01/04 06:45:46;;;;;;;10.20;4.20;;;;;;;5.00;68.97;100969.47;5073147;28;20486;-83
2021/01/04 06:48:27;;;;;;;15.03;4.63;;;;;;;4.99;68.36;100966.91;5073371;28;20059;-83
2021/01/04 06:51:11;;;;;;;9.38;4.70;;;;;;;5.13;68.17;100969.88;5073156;28;20097;-83
2021/01/04 06:54:14;;;;;;;10.13;4.78;;;;;;;4.97;68.52;100964.38;5073139;28;20020;-83
2021/01/04 06:57:17;;;;;;;8.35;4.00;;;;;;;5.08;68.50;100964.84;5073585;28;20108;-83
2021/01/04 07:00:03;;;;;;;9.77;3.50;;;;;;;5.00;68.05;100972.06;5073800;28;20094;-84
2021/01/04 07:03:12;;;;;;;6.57;4.13;;;;;;;5.01;68.08;100957.31;5072796;28;20039;-83
2021/01/04 07:06:05;;;;;;;8.57;3.97;;;;;;;4.90;68.34;100968.13;5026604;28;20479;-83
2021/01/04 07:08:58;;;;;;;8.07;4.25;;;;;;;4.95;68.60;100968.78;5071927;28;20081;-83
2021/01/04 07:11:45;;;;;;;9.93;4.30;;;;;;;5.06;68.48;100964.06;5089139;28;20115;-84
2021/01/04 07:14:35;;;;;;;12.55;4.70;;;;;;;5.00;68.59;100969.47;5092531;28;20032;-83
2021/01/04 07:17:18;;;;;;;6.30;4.07;;;;;;;4.87;68.98;100970.81;5072638;28;20039;-83
2021/01/04 07:19:49;;;;;;;13.55;4.65;;;;;;;4.77;69.53;100968.53;5071861;28;20021;-83
2021/01/04 07:22:38;;;;;;;14.80;5.67;;;;;;;5.01;68.81;100981.56;5054457;28;20028;-83
2021/01/04 07:25:45;;;;;;;9.48;4.10;;;;;;;4.87;69.71;100984.66;5092429;28;20545;-82
2021/01/04 07:28:40;;;;;;;11.73;4.78;;;;;;;4.68;69.73;100984.47;5058136;28;20110;-82
2021/01/04 07:31:25;;;;;;;11.63;4.22;;;;;;;5.00;68.98;100986.84;5073700;28;20028;-83
2021/01/04 07:33:58;;;;;;;12.80;4.70;;;;;;;4.73;70.05;100977.34;5091783;28;20077;-83
2021/01/04 07:36:43;;;;;;;11.68;5.53;;;;;;;4.88;70.10;100978.56;5092476;28;20024;-83
2021/01/04 07:39:23;;;;;;;6.78;3.83;;;;;;;5.01;68.99;100983.34;5092430;28;20093;-83
2021/01/04 07:41:58;;;;;;;8.57;4.57;;;;;;;5.09;68.88;100974.34;5092466;28;20095;-82
2021/01/04 07:44:49;;;;;;;11.98;5.25;;;;;;;4.97;69.37;100979.97;5091405;28;20860;-82
2021/01/04 07:47:39;;;;;;;12.85;4.28;;;;;;;5.03;68.91;100974.56;5092179;28;20481;-82
2021/01/04 07:50:52;;;;;;;10.52;4.25;;;;;;;5.21;68.58;100987.81;5092020;28;20392;-82
2021/01/04 07:53:31;;;;;;;12.80;4.00;;;;;;;4.94;68.84;100987.91;4989958;28;20081;-82
2021/01/04 07:56:20;;;;;;;9.75;4.10;;;;;;;5.13;68.49;100990.69;5043994;28;20024;-82
2021/01/04 07:59:04;;;;;;;5.70;4.22;;;;;;;5.08;68.39;100993.47;5072855;28;20055;-83
2021/01/04 08:01:49;;;;;;;12.40;4.13;;;;;;;5.10;68.56;100986.47;5071820;28;20398;-82
2021/01/04 08:04:33;;;;;;;11.27;4.22;;;;;;;4.86;68.98;100985.59;5029229;28;20044;-82
2021/01/04 08:07:13;;;;;;;6.63;3.67;;;;;;;4.96;69.40;100994.75;5071492;28;20107;-82
2021/01/04 08:10:00;;;;;;;5.82;3.60;;;;;;;5.11;68.41;100995.94;5084831;28;20251;-82
2021/01/04 08:12:57;;;;;;;7.55;3.63;;;;;;;4.87;68.41;100996.81;5090280;28;20092;-83
2021/01/04 08:15:34;;;;;;;6.47;4.32;;;;;;;4.97;68.18;100999.03;5092491;28;20081;-83
2021/01/04 08:18:11;;;;;;;9.52;4.18;;;;;;;4.82;69.03;101001.31;5073613;28;20057;-82
2021/01/04 08:20:45;;;;;;;13.68;4.10;;;;;;;5.05;68.08;100993.56;5092377;28;20052;-82
2021/01/04 08:23:19;;;;;;;8.95;4.07;;;;;;;4.82;69.62;101001.31;5090833;28;20381;-82
2021/01/04 08:26:03;;;;;;;10.85;3.95;;;;;;;4.88;69.25;100991.59;5077548;28;20020;-82
2021/01/04 08:28:39;;;;;;;10.05;4.10;;;;;;;5.03;68.98;101002.34;5059248;28;20111;-82
2021/01/04 08:31:22;;;;;;;7.80;3.75;;;;;;;5.26;68.54;100996.31;5082674;28;20394;-83
2021/01/04 08:33:51;;;;;;;11.90;4.60;;;;;;;5.29;68.12;101009.22;5091609;28;20032;-83
2021/01/04 08:36:24;;;;;;;9.60;3.90;;;;;;;5.29;68.93;101001.41;5091766;28;20016;-82
2021/01/04 08:38:51;;;;;;;10.98;3.90;;;;;;;5.35;69.18;100995.97;5091809;28;20116;-82
2021/01/04 08:41:19;;;;;;;9.57;3.85;;;;;;;5.41;68.84;101006.19;5085626;28;20021;-83
2021/01/04 08:43:48;;;;;;;7.88;3.72;;;;;;;5.34;67.83;100981.25;5078272;28;20198;-83
2021/01/04 08:46:22;;;;;;;10.40;3.80;;;;;;;5.40;68.34;101003.63;5089392;28;20020;-82
2021/01/04 08:48:50;;;;;;;11.65;3.53;;;;;;;5.43;67.79;101001.78;5085180;28;20029;-82
2021/01/04 08:51:25;;;;;;;5.18;3.40;;;;;;;5.50;67.57;101000.63;5076063;28;20390;-83
2021/01/04 08:54:03;;;;;;;7.55;3.35;;;;;;;5.53;67.80;101003.13;5076031;28;20028;-82
2021/01/04 08:56:38;;;;;;;7.35;3.08;;;;;;;5.53;66.89;101000.50;5053395;28;20028;-82
2021/01/04 08:59:30;;;;;;;6.55;3.33;;;;;;;5.53;67.61;101015.31;5089168;28;20426;-83
2021/01/04 09:01:59;;;;;;;8.18;3.05;;;;;;;5.66;67.41;101011.31;5087492;28;20017;-82
2021/01/04 09:04:30;;;;;;;8.55;3.45;;;;;;;5.53;68.35;101016.16;5089305;28;20039;-84
2021/01/04 09:07:07;;;;;;;10.98;3.60;;;;;;;5.59;68.06;101020.28;5071377;28;20486;-84
2021/01/04 09:11:24;;;;;;;12.20;3.67;;;;;;;5.81;67.61;101030.72;5069914;28;20415;-83
2021/01/04 09:13:50;;;;;;;6.75;3.30;;;;;;;5.87;67.38;101021.84;5068259;28;20039;-82
2021/01/04 09:16:19;;;;;;;7.15;3.20;;;;;;;5.90;67.52;101014.72;5058695;28;20031;-83
2021/01/04 09:18:50;;;;;;;12.00;3.75;;;;;;;5.70;67.91;101022.47;5058317;28;20024;-83
2021/01/04 09:21:35;;;;;;;8.05;3.63;;;;;;;6.01;66.68;101027.38;5060933;28;20028;-83
2021/01/04 09:24:22;;;;;;;10.05;3.47;;;;;;;6.20;66.56;101026.66;5066563;28;20399;-83
2021/01/04 09:26:58;;;;;;;12.35;3.58;;;;;;;6.11;66.66;101018.28;5064449;28;20509;-83
2021/01/04 09:29:30;;;;;;;9.23;3.45;;;;;;;6.13;66.78;101020.84;5047408;28;20029;-83
2021/01/04 09:32:01;;;;;;;8.68;3.58;;;;;;;6.08;67.22;101028.00;5062633;28;20029;-82
2021/01/04 09:34:29;;;;;;;10.60;3.10;;;;;;;6.27;67.03;101025.50;5065870;28;20047;-82
2021/01/04 09:37:07;;;;;;;11.00;3.50;;;;;;;6.23;67.39;101022.16;5054001;28;20647;-83
2021/01/04 09:39:36;;;;;;;9.13;3.15;;;;;;;6.32;67.15;101024.41;5055898;28;20344;-82
2021/01/04 09:42:04;;;;;;;10.52;3.20;;;;;;;6.49;66.91;101021.09;5064615;28;20037;-83
2021/01/04 09:44:30;;;;;;;7.57;3.17;;;;;;;6.49;67.16;101017.66;5056349;28;20017;-83
2021/01/04 09:47:22;;;;;;;8.45;3.08;;;;;;;6.29;67.29;101028.91;5060971;28;20025;-83
2021/01/04 09:49:54;;;;;;;7.10;2.67;;;;;;;6.57;66.95;101026.00;5063572;28;20060;-83
2021/01/04 09:52:31;;;;;;;12.35;3.55;;;;;;;6.67;66.75;101029.94;5052701;28;20051;-83
2021/01/04 09:55:04;;;;;;;9.25;3.33;;;;;;;6.29;67.70;101034.13;5066060;28;20024;-83
2021/01/04 09:57:32;;;;;;;11.07;3.17;;;;;;;6.65;66.04;101033.53;5057608;28;20052;-82
2021/01/04 09:59:57;;;;;;;8.00;3.70;;;;;;;6.63;67.16;101025.75;5067795;28;20028;-83
2021/01/04 10:02:24;;;;;;;6.45;3.05;;;;;;;6.65;66.66;101038.75;5056180;28;20034;-83
2021/01/04 10:04:51;;;;;;;9.40;3.75;;;;;;;6.63;67.60;101023.16;5057889;28;20064;-83
2021/01/04 10:07:21;;;;;;;8.02;3.63;;;;;;;6.50;67.65;101024.59;5065696;28;20039;-83
2021/01/04 10:09:50;;;;;;;10.20;4.00;;;;;;;6.41;68.30;101030.16;5049916;28;20045;-83
2021/01/04 10:12:18;;;;;;;9.35;4.45;;;;;;;6.56;68.10;101029.56;5048191;28;20522;-83
2021/01/04 10:14:51;;;;;;;7.20;3.33;;;;;;;6.37;67.79;101029.44;5058951;28;20083;-83
2021/01/04 10:17:22;;;;;;;13.05;4.22;;;;;;;6.78;67.12;101028.66;5061540;28;20033;-84
2021/01/04 10:19:55;;;;;;;4.95;2.75;;;;;;;6.83;66.94;101030.16;5050571;28;20037;-83
2021/01/04 10:22:38;;;;;;;4.18;2.80;;;;;;;6.71;67.10;101025.44;5052986;28;20052;-83
2021/01/04 10:25:16;;;;;;;3.50;2.50;;;;;;;7.08;66.31;101027.31;5043681;28;20009;-81
2021/01/04 10:27:42;;;;;;;5.35;2.70;;;;;;;7.09;66.46;101023.81;5034660;28;20066;-80
2021/01/04 10:30:09;;;;;;;8.38;2.72;;;;;;;7.02;65.80;101025.00;5048659;28;20040;-81
2021/01/04 10:32:37;;;;;;;5.90;2.78;;;;;;;7.05;65.98;101030.09;5052135;28;20062;-82
2021/01/04 10:35:04;;;;;;;7.53;2.83;;;;;;;6.92;65.96;101021.09;5035775;28;20017;-79
2021/01/04 10:37:51;;;;;;;9.02;3.30;;;;;;;6.97;67.24;101019.13;5044472;28;20040;-80
2021/01/04 10:40:21;;;;;;;8.50;2.92;;;;;;;6.96;66.05;101017.41;5043231;28;20103;-81
2021/01/04 10:42:59;;;;;;;9.85;3.20;;;;;;;7.03;65.81;101020.59;5054181;28;20079;-81
2021/01/04 10:45:36;;;;;;;12.40;3.22;;;;;;;6.80;66.90;101021.59;5047737;28;20033;-81
2021/01/04 10:48:10;;;;;;;4.57;2.10;;;;;;;7.26;66.43;101019.59;5037887;28;20395;-81
2021/01/04 10:50:37;;;;;;;5.70;2.38;;;;;;;7.22;65.75;101023.28;5034867;28;20116;-81
2021/01/04 10:53:09;;;;;;;7.15;2.42;;;;;;;7.29;65.64;101009.03;5050959;28;20033;-80
2021/01/04 10:55:49;;;;;;;7.65;2.38;;;;;;;7.33;65.70;101015.81;5039169;28;20116;-81
2021/01/04 10:58:23;;;;;;;4.57;1.92;;;;;;;7.38;65.93;101008.59;5036613;28;20039;-83
2021/01/04 11:00:59;;;;;;;6.45;2.38;;;;;;;7.31;65.77;100997.59;5044254;28;20033;-83
2021/01/04 11:03:25;;;;;;;6.78;2.80;;;;;;;7.32;64.96;101003.66;5051781;28;20041;-83
2021/01/04 11:05:51;;;;;;;6.18;2.22;;;;;;;7.20;65.54;101007.66;5050261;28;20028;-82
2021/01/04 11:08:32;;;;;;;5.45;2.00;;;;;;;7.21;66.23;100995.44;5047177;28;20360;-82
2021/01/04 11:11:36;;;;;;;5.27;1.97;;;;;;;6.89;67.31;100998.56;5044733;28;20040;-83
2021/01/04 11:14:13;;;;;;;10.80;2.67;;;;;;;7.28;65.61;100995.09;5037669;28;20266;-84
2021/01/04 11:16:41;;;;;;;6.88;2.33;;;;;;;7.20;65.94;100993.75;5043328;28;20033;-82
2021/01/04 11:19:07;;;;;;;7.78;2.00;;;;;;;7.54;65.16;100983.50;5036640;28;20030;-82
2021/01/04 11:21:38;;;;;;;5.35;2.15;;;;;;;7.49;65.51;100984.63;5046904;28;20036;-85
2021/01/04 11:24:04;;;;;;;10.35;2.10;;;;;;;7.44;64.67;100984.81;5054118;28;20029;-86
2021/01/04 11:26:30;;;;;;;5.20;2.10;;;;;;;7.28;65.66;100970.75;5043174;28;20394;-86
2021/01/04 11:28:56;;;;;;;7.85;1.75;;;;;;;7.70;64.13;100972.31;5052895;28;20040;-87
2021/01/04 11:31:21;;;;;;;4.90;1.50;;;;;;;7.61;65.02;100983.22;5053335;28;20029;-82
2021/01/04 11:33:46;;;;;;;5.40;1.45;;;;;;;7.92;63.79;100978.22;5048093;28;20729;-82
2021/01/04 11:36:12;;;;;;;4.40;1.45;;;;;;;7.91;63.99;100976.53;5042305;28;20032;-82
2021/01/04 11:38:37;;;;;;;4.97;1.50;;;;;;;8.07;63.87;100974.00;5039235;28;20025;-81
2021/01/04 11:41:03;;;;;;;8.95;1.70;;;;;;;7.82;64.11;100976.97;5043583;28;20034;-81
2021/01/04 11:43:28;;;;;;;7.38;1.63;;;;;;;7.91;62.79;100971.28;5031777;28;20037;-81
2021/01/04 11:45:53;;;;;;;8.15;1.67;;;;;;;8.00;63.41;100966.53;5033372;28;20076;-81
2021/01/04 11:48:19;;;;;;;7.05;1.92;;;;;;;7.93;62.76;100956.38;5041133;28;20037;-80
2021/01/04 11:50:45;;;;;;;7.00;1.67;;;;;;;8.14;62.31;100958.88;5032740;28;20044;-80
2021/01/04 11:53:10;;;;;;;9.77;1.70;;;;;;;7.81;64.30;100971.81;5032887;28;20115;-80
2021/01/04 11:55:37;;;;;;;11.50;1.60;;;;;;;7.57;63.20;100960.75;5036639;28;20440;-82
2021/01/04 11:58:02;;;;;;;5.22;1.45;;;;;;;7.80;63.33;100962.25;5032942;28;20030;-82
2021/01/04 12:00:28;;;;;;;4.97;1.25;;;;;;;8.16;62.37;100957.03;5032617;28;20033;-82
2021/01/04 12:02:54;;;;;;;6.40;1.15;;;;;;;8.07;63.27;100954.88;5046228;28;20040;-82
2021/01/04 12:05:19;;;;;;;4.15;1.42;;;;;;;7.79;63.77;100950.13;5051484;28;20406;-83
2021/01/04 12:07:45;;;;;;;9.98;3.25;;;;;;;8.07;62.84;100953.09;5042070;28;20041;-82
2021/01/04 12:10:12;;;;;;;5.13;1.63;;;;;;;8.21;62.53;100948.97;5036585;28;20025;-84
2021/01/04 12:12:37;;;;;;;6.20;1.40;;;;;;;7.95;63.27;100948.47;5049568;28;20580;-82
2021/01/04 12:15:05;;;;;;;6.55;1.98;;;;;;;8.20;61.75;100935.03;5044921;28;20049;-82